KMAF/MAF METAR and TAF weather

Enter ICAO airport designator
Station Type Date Time Source
KMAF METAR 2021/03/08 15:53 UTC NOAA

KMAF 081553Z 18016KT 10SM CLR 14/07 A3029 RMK AO2 SLP236 T01390072


Station Type Date Time Source
KMAF Decoded METAR 2021/03/08 15:53 UTC NOAA

MIDLAND INTERNATIONAL AIRPORT , TX, United States (KMAF) 31-56N 102-12W 872M
Mar 08, 2021 - 10:53 AM EST / 2021.03.08 1553 UTC
Wind: from the S (180 degrees) at 18 MPH (16 KT):0
Visibility: 10 mile(s):0
Sky conditions: clear
Temperature: 57.0 F (13.9 C)
Dew Point: 45.0 F (7.2 C)
Relative Humidity: 63%
Pressure (altimeter): 30.29 in. Hg (1025 hPa)
ob: KMAF 081553Z 18016KT 10SM CLR 14/07 A3029 RMK AO2 SLP236 T01390072
cycle: 16

Station Type Date Time Source
KMAF TAF 2021/03/08 16:04 UTC NOAA

TAF
AMD KMAF 081602Z 0816/0912 17017KT P6SM BKN250

Example: see airport list